createdAt,value
2023-01-20T00:00:44.485Z,30.67
2023-01-20T00:03:14.554Z,35.70
2023-01-20T00:05:53.846Z,30.33
2023-01-20T00:08:23.784Z,35.23
2023-01-20T00:10:53.647Z,32.53
2023-01-20T00:13:23.425Z,35.47
2023-01-20T00:15:53.579Z,37.67
2023-01-20T00:18:28.954Z,33.90
2023-01-20T00:21:05.458Z,36.30
2023-01-20T00:23:35.482Z,30.23
2023-01-20T00:26:12.703Z,29.87
2023-01-20T00:28:42.755Z,38.10
2023-01-20T00:31:22.717Z,33.23
2023-01-20T00:33:55.245Z,36.73
2023-01-20T00:36:29.352Z,38.87
2023-01-20T00:38:59.205Z,36.23
2023-01-20T00:41:29.584Z,34.67
2023-01-20T00:44:01.476Z,41.53
2023-01-20T00:46:31.457Z,41.33
2023-01-20T00:49:01.914Z,39.60
2023-01-20T00:51:34.276Z,32.60
2023-01-20T00:54:03.935Z,33.93
2023-01-20T00:56:33.957Z,41.57
2023-01-20T00:59:05.917Z,46.83
2023-01-20T01:01:37.965Z,38.20
2023-01-20T01:04:08.648Z,43.97
2023-01-20T01:06:41.760Z,38.00
2023-01-20T01:09:11.809Z,41.07
2023-01-20T01:11:46.674Z,41.13
2023-01-20T01:14:40.425Z,40.90
2023-01-20T01:17:12.234Z,33.17
2023-01-20T01:19:42.293Z,32.17
2023-01-20T01:22:14.738Z,41.60
2023-01-20T01:24:47.838Z,38.50
2023-01-20T01:27:19.478Z,37.40
2023-01-20T01:29:49.167Z,42.07
2023-01-20T01:32:19.193Z,41.87
2023-01-20T01:34:51.169Z,41.63
2023-01-20T01:37:23.548Z,47.53
2023-01-20T01:39:53.280Z,44.20
2023-01-20T01:42:26.922Z,39.63
2023-01-20T01:45:24.781Z,47.87
2023-01-20T01:48:03.625Z,39.40
2023-01-20T01:50:42.267Z,47.77
2023-01-20T01:53:16.662Z,49.40
2023-01-20T01:55:50.906Z,33.93
2023-01-20T01:58:31.794Z,38.80
2023-01-20T02:01:01.864Z,39.57
2023-01-20T02:03:39.942Z,42.10
2023-01-20T02:06:10.484Z,43.63
2023-01-20T02:08:44.000Z,48.10
2023-01-20T02:11:16.002Z,48.67
2023-01-20T02:13:47.355Z,45.40
2023-01-20T02:16:22.942Z,43.23
2023-01-20T02:19:10.603Z,51.17
2023-01-20T02:22:05.925Z,39.90
2023-01-20T02:25:08.650Z,44.00
2023-01-20T02:28:08.389Z,48.37
2023-01-20T02:30:53.454Z,41.80
2023-01-20T02:33:33.321Z,40.37
2023-01-20T02:36:11.320Z,40.63
2023-01-20T02:38:47.382Z,50.27
2023-01-20T02:41:23.693Z,41.03
2023-01-20T02:44:02.927Z,35.03
2023-01-20T02:46:36.773Z,33.63
2023-01-20T02:49:17.735Z,36.33
2023-01-20T02:51:53.765Z,35.07
2023-01-20T02:54:29.205Z,34.50
2023-01-20T02:57:01.591Z,40.27
2023-01-20T02:59:36.063Z,32.03
2023-01-20T03:02:12.181Z,32.97
2023-01-20T03:04:49.963Z,36.03
2023-01-20T03:07:23.479Z,42.47
2023-01-20T03:09:56.389Z,38.40
2023-01-20T03:12:32.239Z,39.87
2023-01-20T03:15:02.261Z,38.40
2023-01-20T03:17:35.609Z,39.33
2023-01-20T03:20:09.515Z,39.83
2023-01-20T03:22:39.903Z,44.93
2023-01-20T03:25:11.709Z,37.93
2023-01-20T03:27:44.032Z,41.43
2023-01-20T03:30:16.516Z,35.03
2023-01-20T03:32:49.187Z,35.63
2023-01-20T03:35:22.293Z,37.53
2023-01-20T03:37:52.763Z,45.50
2023-01-20T03:40:23.556Z,33.60
2023-01-20T03:43:01.934Z,39.57
2023-01-20T03:45:40.138Z,37.57
2023-01-20T03:48:15.656Z,31.33
2023-01-20T03:50:58.451Z,21.57
2023-01-20T03:53:37.553Z,32.37
2023-01-20T03:56:18.248Z,33.90
2023-01-20T03:58:54.308Z,37.80
2023-01-20T04:01:28.125Z,33.87
2023-01-20T04:03:59.149Z,34.13
2023-01-20T04:06:34.809Z,32.67
2023-01-20T04:09:10.105Z,35.70
2023-01-20T04:11:40.177Z,36.97
2023-01-20T04:14:12.193Z,36.13
2023-01-20T04:16:42.621Z,36.23
2023-01-20T04:19:14.775Z,30.30
2023-01-20T04:21:52.047Z,40.07
2023-01-20T04:24:29.334Z,39.43
2023-01-20T04:27:00.443Z,37.30
2023-01-20T04:29:30.481Z,35.27
2023-01-20T04:32:05.632Z,32.30
2023-01-20T04:34:35.913Z,34.63
2023-01-20T04:37:08.277Z,31.50
2023-01-20T04:39:38.009Z,29.27
2023-01-20T04:42:08.637Z,31.63
2023-01-20T04:44:50.638Z,34.27
2023-01-20T04:47:20.522Z,28.23
2023-01-20T04:49:50.288Z,29.83
2023-01-20T04:52:23.168Z,34.37
2023-01-20T04:54:53.102Z,29.90
2023-01-20T04:57:25.479Z,33.93
2023-01-20T04:59:57.243Z,28.40
2023-01-20T05:02:27.527Z,27.93
2023-01-20T05:04:57.451Z,32.60
2023-01-20T05:07:29.926Z,33.13
2023-01-20T05:09:59.669Z,34.83
2023-01-20T05:12:29.423Z,30.37
2023-01-20T05:14:59.215Z,26.80
2023-01-20T05:17:30.946Z,29.80
2023-01-20T05:20:00.842Z,27.67
2023-01-20T05:22:33.738Z,29.43
2023-01-20T05:25:04.047Z,28.27
2023-01-20T05:27:33.764Z,29.77
2023-01-20T05:30:05.723Z,30.27
2023-01-20T05:32:35.657Z,28.57
2023-01-20T05:35:05.482Z,24.10
2023-01-20T05:37:37.939Z,31.10
2023-01-20T05:40:09.176Z,29.33
2023-01-20T05:42:39.396Z,30.30
2023-01-20T05:45:10.777Z,31.93
2023-01-20T05:47:41.321Z,29.17
2023-01-20T05:50:16.249Z,30.23
2023-01-20T05:52:49.507Z,30.90
2023-01-20T05:55:19.909Z,36.80
2023-01-20T05:57:49.792Z,29.27
2023-01-20T06:00:21.665Z,32.43
2023-01-20T06:02:53.745Z,36.00
2023-01-20T06:05:27.009Z,35.70
2023-01-20T06:08:00.983Z,28.70
2023-01-20T06:10:31.263Z,31.13
2023-01-20T06:13:01.415Z,32.70
2023-01-20T06:15:32.642Z,28.60
2023-01-20T06:18:02.375Z,31.47
2023-01-20T06:20:32.838Z,31.87
2023-01-20T06:23:05.182Z,35.53
2023-01-20T06:25:34.892Z,34.57
2023-01-20T06:28:06.545Z,40.13
2023-01-20T06:30:36.426Z,25.73
2023-01-20T06:33:10.688Z,31.03
2023-01-20T06:35:40.694Z,32.93
2023-01-20T06:38:13.188Z,29.07
2023-01-20T06:40:42.983Z,31.33
2023-01-20T06:43:12.822Z,30.30
2023-01-20T06:45:42.707Z,24.57
2023-01-20T06:48:13.841Z,31.00
2023-01-20T06:50:43.843Z,28.97
2023-01-20T06:53:17.667Z,33.00
2023-01-20T06:55:47.470Z,26.63
2023-01-20T06:58:22.223Z,29.27
2023-01-20T07:00:52.110Z,28.00
2023-01-20T07:03:24.328Z,31.30
2023-01-20T07:05:59.238Z,26.90
2023-01-20T07:08:34.348Z,25.07
2023-01-20T07:11:04.207Z,27.67
2023-01-20T07:13:34.550Z,25.97
2023-01-20T07:16:04.957Z,31.87
2023-01-20T07:18:34.722Z,29.97
2023-01-20T07:21:07.540Z,25.73
2023-01-20T07:23:42.213Z,27.60
2023-01-20T07:26:13.815Z,29.47
2023-01-20T07:28:43.548Z,23.57
2023-01-20T07:31:15.774Z,26.37
2023-01-20T07:33:46.475Z,19.93
2023-01-20T07:36:17.548Z,21.40
2023-01-20T07:38:53.451Z,29.40
2023-01-20T07:41:24.113Z,23.60
2023-01-20T07:43:56.596Z,28.67
2023-01-20T07:46:26.456Z,22.83
2023-01-20T07:48:56.356Z,26.60
2023-01-20T07:51:26.167Z,26.40
2023-01-20T07:53:58.518Z,28.53
2023-01-20T07:56:30.931Z,23.13
2023-01-20T07:59:01.444Z,20.07
2023-01-20T08:01:33.168Z,28.57
2023-01-20T08:04:03.710Z,19.90
2023-01-20T08:06:33.780Z,26.63
2023-01-20T08:09:09.276Z,24.23
2023-01-20T08:11:39.170Z,25.70
2023-01-20T08:14:09.099Z,26.73
2023-01-20T08:16:41.790Z,24.83
2023-01-20T08:19:11.797Z,26.03
2023-01-20T08:21:41.491Z,23.20
2023-01-20T08:24:15.971Z,23.43
2023-01-20T08:26:45.996Z,26.53
2023-01-20T08:29:15.778Z,24.53
2023-01-20T08:31:45.695Z,25.27
2023-01-20T08:34:15.704Z,27.20
2023-01-20T08:36:45.463Z,27.43
2023-01-20T08:39:20.204Z,26.00
2023-01-20T08:41:51.283Z,29.53
2023-01-20T08:44:21.674Z,16.87
2023-01-20T08:46:52.744Z,26.83
2023-01-20T08:49:24.161Z,31.57
2023-01-20T08:51:55.502Z,27.37
2023-01-20T08:54:29.789Z,20.13
2023-01-20T08:56:59.584Z,13.13
2023-01-20T08:59:29.566Z,25.27
2023-01-20T09:01:59.536Z,23.97
2023-01-20T09:04:29.373Z,25.33
2023-01-20T09:06:59.235Z,28.97
2023-01-20T09:09:31.938Z,20.10
2023-01-20T09:12:02.078Z,28.10
2023-01-20T09:14:31.899Z,20.60
2023-01-20T09:17:02.879Z,23.70
2023-01-20T09:19:33.176Z,22.23
2023-01-20T09:22:03.575Z,23.50
2023-01-20T09:24:35.948Z,18.70
2023-01-20T09:27:05.827Z,28.60
2023-01-20T09:29:36.500Z,26.47
2023-01-20T09:32:06.629Z,24.70
2023-01-20T09:34:36.566Z,18.23
2023-01-20T09:37:18.744Z,18.27
2023-01-20T09:40:04.115Z,29.67
2023-01-20T09:42:56.517Z,22.50
2023-01-20T09:45:30.860Z,21.40
2023-01-20T09:48:15.430Z,21.93
2023-01-20T09:51:04.713Z,26.80
2023-01-20T09:53:50.751Z,25.07
2023-01-20T09:56:27.492Z,26.53
2023-01-20T09:59:04.033Z,28.27
2023-01-20T10:01:38.957Z,26.63
2023-01-20T10:04:17.364Z,26.27
2023-01-20T10:06:50.574Z,22.37
2023-01-20T10:09:28.068Z,15.00
2023-01-20T10:12:08.922Z,25.90
2023-01-20T10:14:43.873Z,22.00
2023-01-20T10:17:18.035Z,26.97
2023-01-20T10:19:56.524Z,20.50
2023-01-20T10:22:32.489Z,30.83
2023-01-20T10:25:07.217Z,39.13
2023-01-20T10:27:45.501Z,44.47
2023-01-20T10:30:20.343Z,66.80
2023-01-20T10:32:56.900Z,33.63
2023-01-20T10:35:29.778Z,84.67
2023-01-20T10:37:59.694Z,65.83
2023-01-20T10:40:38.027Z,34.60
2023-01-20T10:43:15.086Z,40.83
2023-01-20T10:46:01.656Z,35.33
2023-01-20T10:48:50.601Z,33.63
2023-01-20T10:51:30.212Z,27.87
2023-01-20T10:54:17.391Z,17.30
2023-01-20T10:56:54.026Z,15.77
2023-01-20T10:59:32.273Z,28.87
2023-01-20T11:02:12.139Z,29.90
2023-01-20T11:04:42.582Z,26.57
2023-01-20T11:07:19.230Z,25.93
2023-01-20T11:09:51.910Z,28.03
2023-01-20T11:12:25.322Z,33.90
2023-01-20T11:15:02.657Z,30.23
2023-01-20T11:17:32.572Z,35.70
2023-01-20T11:20:08.709Z,31.07
2023-01-20T11:22:40.423Z,25.37
2023-01-20T11:25:27.240Z,25.77
2023-01-20T11:27:58.294Z,19.97
2023-01-20T11:30:34.413Z,26.40
2023-01-20T11:33:12.221Z,26.87
2023-01-20T11:35:42.290Z,21.33
2023-01-20T11:38:26.094Z,20.40
2023-01-20T11:40:57.655Z,23.20
2023-01-20T11:43:32.679Z,21.10
2023-01-20T11:46:25.770Z,21.37
2023-01-20T11:49:20.035Z,19.63
2023-01-20T11:51:53.388Z,26.17
2023-01-20T11:54:25.891Z,18.40
2023-01-20T11:56:59.894Z,19.73
2023-01-20T11:59:32.172Z,17.90
2023-01-20T12:02:24.809Z,19.30
2023-01-20T12:05:06.451Z,23.47
2023-01-20T12:07:42.669Z,16.13
2023-01-20T12:10:20.202Z,19.00
2023-01-20T12:12:55.423Z,19.90
2023-01-20T12:15:28.843Z,14.63
2023-01-20T12:18:04.461Z,20.27
2023-01-20T12:20:54.190Z,29.90
2023-01-20T12:23:34.597Z,47.23
2023-01-20T12:26:07.589Z,26.60
2023-01-20T12:28:45.754Z,23.83
2023-01-20T12:31:20.668Z,19.63
2023-01-20T12:33:57.160Z,18.07
2023-01-20T12:36:47.928Z,23.40
2023-01-20T12:39:48.272Z,30.30
2023-01-20T12:42:59.022Z,20.00
2023-01-20T12:45:45.335Z,17.40
2023-01-20T12:48:33.649Z,19.90
2023-01-20T12:51:22.655Z,18.13
2023-01-20T12:54:08.684Z,15.30
2023-01-20T12:56:51.158Z,19.73
2023-01-20T12:59:38.381Z,16.47
2023-01-20T13:02:37.832Z,17.30
2023-01-20T13:05:28.310Z,16.27
2023-01-20T13:08:13.813Z,16.10
2023-01-20T13:11:06.165Z,15.70
2023-01-20T13:13:57.414Z,15.07
2023-01-20T13:16:35.574Z,17.30
2023-01-20T13:19:14.059Z,18.30
2023-01-20T13:21:43.936Z,16.17
2023-01-20T13:24:29.410Z,15.70
2023-01-20T13:27:01.023Z,14.33
2023-01-20T13:29:45.628Z,13.50
2023-01-20T13:32:31.491Z,15.07
2023-01-20T13:35:03.181Z,14.63
2023-01-20T13:37:38.331Z,17.33
2023-01-20T13:40:58.858Z,12.33
2023-01-20T13:43:40.377Z,14.23
2023-01-20T13:46:40.203Z,17.90
2023-01-20T13:49:39.612Z,11.87
2023-01-20T13:52:14.963Z,13.67
2023-01-20T13:54:47.187Z,15.00
2023-01-20T13:57:40.937Z,16.77
2023-01-20T14:00:21.520Z,13.27
2023-01-20T14:02:53.275Z,11.40
2023-01-20T14:05:32.436Z,17.53
2023-01-20T14:08:03.003Z,13.07
2023-01-20T14:10:32.789Z,18.03
2023-01-20T14:13:12.131Z,12.87
2023-01-20T14:15:42.986Z,12.57
2023-01-20T14:18:18.923Z,14.20
2023-01-20T14:21:03.326Z,14.27
2023-01-20T14:23:39.227Z,12.77
2023-01-20T14:26:14.933Z,17.30
2023-01-20T14:28:51.742Z,17.30
2023-01-20T14:31:24.711Z,10.67
2023-01-20T14:34:00.721Z,13.87
2023-01-20T14:36:34.970Z,15.63
2023-01-20T14:39:09.663Z,13.97
2023-01-20T14:41:50.785Z,11.60
2023-01-20T14:44:25.416Z,16.93
2023-01-20T14:46:57.089Z,14.50
2023-01-20T14:49:33.603Z,12.00
2023-01-20T14:52:04.184Z,13.07
2023-01-20T14:54:38.772Z,12.83
2023-01-20T14:57:21.724Z,15.20
2023-01-20T15:00:05.438Z,13.03
2023-01-20T15:02:37.674Z,12.30
2023-01-20T15:05:22.782Z,13.43
2023-01-20T15:07:52.593Z,13.30
2023-01-20T15:10:22.682Z,15.97
2023-01-20T15:12:57.165Z,10.87
2023-01-20T15:15:32.638Z,12.70
2023-01-20T15:18:24.533Z,17.17
2023-01-20T15:21:11.798Z,16.03
2023-01-20T15:23:52.486Z,12.23
2023-01-20T15:26:29.048Z,17.83
2023-01-20T15:29:00.101Z,14.83
2023-01-20T15:31:32.768Z,7.37
2023-01-20T15:34:02.478Z,12.60
2023-01-20T15:36:37.199Z,13.00
2023-01-20T15:39:07.021Z,11.63
2023-01-20T15:41:36.874Z,14.60
2023-01-20T15:44:06.953Z,12.43
2023-01-20T15:46:39.435Z,12.57
2023-01-20T15:49:09.301Z,11.37
2023-01-20T15:51:39.129Z,12.43
2023-01-20T15:54:09.482Z,15.00
2023-01-20T15:56:42.352Z,16.10
2023-01-20T15:59:15.209Z,15.40
2023-01-20T16:01:50.323Z,11.67
2023-01-20T16:04:21.324Z,11.67
2023-01-20T16:06:51.102Z,11.20
2023-01-20T16:09:27.637Z,14.90
2023-01-20T16:11:57.532Z,12.10
2023-01-20T16:14:28.542Z,11.03
2023-01-20T16:17:00.912Z,13.63
2023-01-20T16:19:30.888Z,11.10
2023-01-20T16:22:00.781Z,11.87
2023-01-20T16:24:30.662Z,9.50
2023-01-20T16:27:00.617Z,9.97
2023-01-20T16:29:30.436Z,12.90
2023-01-20T16:32:03.061Z,13.23
2023-01-20T16:34:33.127Z,14.00
2023-01-20T16:37:03.276Z,10.07
2023-01-20T16:39:33.200Z,12.73
2023-01-20T16:42:03.421Z,11.57
2023-01-20T16:44:33.769Z,12.13
2023-01-20T16:47:06.770Z,13.00
2023-01-20T16:49:36.891Z,12.57
2023-01-20T16:52:07.339Z,18.77
2023-01-20T16:54:38.345Z,11.10
2023-01-20T16:57:11.149Z,16.43
2023-01-20T16:59:41.167Z,11.80
2023-01-20T17:02:14.674Z,20.30
2023-01-20T17:04:44.481Z,13.87
2023-01-20T17:07:14.717Z,13.93
2023-01-20T17:09:46.026Z,19.77
2023-01-20T17:12:17.149Z,17.20
2023-01-20T17:14:46.937Z,16.20
2023-01-20T17:17:19.605Z,11.70
2023-01-20T17:19:49.486Z,20.13
2023-01-20T17:22:20.341Z,16.50
2023-01-20T17:24:50.284Z,12.23
2023-01-20T17:27:20.071Z,14.57
2023-01-20T17:29:50.062Z,10.97
2023-01-20T17:32:22.742Z,12.63
2023-01-20T17:34:52.775Z,15.07
2023-01-20T17:37:22.589Z,14.43
2023-01-20T17:39:52.350Z,16.57
2023-01-20T17:42:22.359Z,17.33
2023-01-20T17:44:52.084Z,12.87
2023-01-20T17:47:24.621Z,14.20
2023-01-20T17:49:54.560Z,12.77
2023-01-20T17:52:24.700Z,18.87
2023-01-20T17:54:55.436Z,13.97
2023-01-20T17:57:27.017Z,15.87
2023-01-20T17:59:57.280Z,14.33
2023-01-20T18:02:29.808Z,13.53
2023-01-20T18:04:59.913Z,17.20
2023-01-20T18:07:29.736Z,21.23
2023-01-20T18:10:01.601Z,15.77
2023-01-20T18:12:31.582Z,16.27
2023-01-20T18:15:04.524Z,13.70
2023-01-20T18:17:38.253Z,16.90
2023-01-20T18:20:09.838Z,13.63
2023-01-20T18:22:39.798Z,15.20
2023-01-20T18:25:10.090Z,17.83
2023-01-20T18:27:40.211Z,14.07
2023-01-20T18:30:11.845Z,14.67
2023-01-20T18:32:44.486Z,19.20
2023-01-20T18:35:14.593Z,15.47
2023-01-20T18:37:44.360Z,14.67
2023-01-20T18:40:15.609Z,15.60
2023-01-20T18:42:45.950Z,16.30
2023-01-20T18:45:15.834Z,17.77
2023-01-20T18:47:48.575Z,12.90
2023-01-20T18:50:19.812Z,13.27
2023-01-20T18:52:49.563Z,18.50
2023-01-20T18:55:19.775Z,15.00
2023-01-20T18:57:49.558Z,16.23
2023-01-20T19:00:20.357Z,16.87
2023-01-20T19:02:55.364Z,17.17
2023-01-20T19:05:25.180Z,16.73
2023-01-20T19:07:55.097Z,18.63
2023-01-20T19:10:25.012Z,15.00
2023-01-20T19:12:55.228Z,16.10
2023-01-20T19:15:25.078Z,17.87
2023-01-20T19:17:57.529Z,21.20
2023-01-20T19:20:27.410Z,15.97
2023-01-20T19:22:57.544Z,18.57
2023-01-20T19:25:31.619Z,16.23
2023-01-20T19:28:01.742Z,16.87
2023-01-20T19:30:31.712Z,19.07
2023-01-20T19:33:04.510Z,15.67
2023-01-20T19:35:34.938Z,18.97
2023-01-20T19:38:05.061Z,16.87
2023-01-20T19:40:35.064Z,16.33
2023-01-20T19:43:05.155Z,19.80
2023-01-20T19:45:45.863Z,16.63
2023-01-20T19:48:19.100Z,18.93
2023-01-20T19:50:49.484Z,19.17
2023-01-20T19:53:19.421Z,25.50
2023-01-20T19:55:49.976Z,19.50
2023-01-20T19:58:20.054Z,20.20
2023-01-20T20:00:50.123Z,26.73
2023-01-20T20:03:22.766Z,17.00
2023-01-20T20:05:52.816Z,20.00
2023-01-20T20:08:22.898Z,25.27
2023-01-20T20:10:53.105Z,19.00
2023-01-20T20:13:22.905Z,23.43
2023-01-20T20:15:53.344Z,19.67
2023-01-20T20:18:26.910Z,18.33
2023-01-20T20:20:56.860Z,22.10
2023-01-20T20:23:28.242Z,21.73
2023-01-20T20:25:58.504Z,20.80
2023-01-20T20:28:30.058Z,15.57
2023-01-20T20:31:07.670Z,23.07
2023-01-20T20:33:40.411Z,21.90
2023-01-20T20:36:13.506Z,27.63
2023-01-20T20:38:43.898Z,27.23
2023-01-20T20:41:13.757Z,21.97
2023-01-20T20:43:43.832Z,27.40
2023-01-20T20:46:16.672Z,27.93
2023-01-20T20:48:49.535Z,27.73
2023-01-20T20:51:20.202Z,26.73
2023-01-20T20:53:49.971Z,28.00
2023-01-20T20:56:19.802Z,26.47
2023-01-20T20:59:00.900Z,25.50
2023-01-20T21:01:32.893Z,24.13
2023-01-20T21:04:06.289Z,28.17
2023-01-20T21:06:36.827Z,26.73
2023-01-20T21:09:06.923Z,28.87
2023-01-20T21:11:38.370Z,27.27
2023-01-20T21:14:08.455Z,26.90
2023-01-20T21:16:38.320Z,26.07
2023-01-20T21:19:10.911Z,29.10
2023-01-20T21:21:40.996Z,33.20
2023-01-20T21:24:14.071Z,26.73
2023-01-20T21:26:43.982Z,30.47
2023-01-20T21:29:14.295Z,27.37
2023-01-20T21:31:44.361Z,26.17
2023-01-20T21:34:19.216Z,33.90
2023-01-20T21:36:49.306Z,26.57
2023-01-20T21:39:20.730Z,26.07
2023-01-20T21:41:50.567Z,23.50
2023-01-20T21:44:33.074Z,29.30
2023-01-20T21:47:04.702Z,25.63
2023-01-20T21:49:50.010Z,30.20
2023-01-20T21:52:34.482Z,32.30
2023-01-20T21:55:04.957Z,29.97
2023-01-20T21:57:35.607Z,27.37
2023-01-20T22:00:08.752Z,25.97
2023-01-20T22:02:38.720Z,26.27
2023-01-20T22:05:12.371Z,25.37
2023-01-20T22:07:43.961Z,25.97
2023-01-20T22:10:14.792Z,23.67
2023-01-20T22:12:44.946Z,25.97
2023-01-20T22:15:15.118Z,28.10
2023-01-20T22:17:45.489Z,28.83
2023-01-20T22:20:20.524Z,26.43
2023-01-20T22:22:50.338Z,32.23
2023-01-20T22:25:20.145Z,22.83
2023-01-20T22:27:51.030Z,30.27
2023-01-20T22:30:21.231Z,27.97
2023-01-20T22:32:51.745Z,28.33
2023-01-20T22:35:24.276Z,30.93
2023-01-20T22:37:54.287Z,33.03
2023-01-20T22:40:24.187Z,25.50
2023-01-20T22:42:53.939Z,28.17
2023-01-20T22:45:23.745Z,30.63
2023-01-20T22:47:53.479Z,29.13
2023-01-20T22:50:26.393Z,33.53
2023-01-20T22:52:56.170Z,35.10
2023-01-20T22:55:25.879Z,31.80
2023-01-20T22:57:55.627Z,28.10
2023-01-20T23:00:25.512Z,29.80
2023-01-20T23:02:55.236Z,30.60
2023-01-20T23:05:27.906Z,31.10
2023-01-20T23:07:57.639Z,34.07
2023-01-20T23:10:39.734Z,25.70
2023-01-20T23:13:09.771Z,28.27
2023-01-20T23:15:39.590Z,30.60
2023-01-20T23:18:09.858Z,28.70
2023-01-20T23:20:42.407Z,27.73
2023-01-20T23:23:12.592Z,29.43
2023-01-20T23:25:42.819Z,33.80
2023-01-20T23:28:12.981Z,30.30
2023-01-20T23:30:43.203Z,30.43
2023-01-20T23:33:13.142Z,30.73
2023-01-20T23:35:45.569Z,28.93
2023-01-20T23:38:15.282Z,31.17
2023-01-20T23:40:44.946Z,25.80
2023-01-20T23:43:14.727Z,31.20
2023-01-20T23:45:44.702Z,34.57
2023-01-20T23:48:14.501Z,30.00
2023-01-20T23:50:47.067Z,30.03
2023-01-20T23:53:16.893Z,32.23
2023-01-20T23:55:48.510Z,28.03
2023-01-20T23:58:18.570Z,33.87
